sensor_id;sensor_type;location;lat;lon;timestamp;P1;durP1;ratioP1;P2;durP2;ratioP2
14592;SDS011;7383;52.354;9.756;2022-10-15T00:02:09;4.25;;;3.95;;
14592;SDS011;7383;52.354;9.756;2022-10-15T00:04:36;4.20;;;3.90;;
14592;SDS011;7383;52.354;9.756;2022-10-15T00:07:03;3.78;;;3.58;;
14592;SDS011;7383;52.354;9.756;2022-10-15T00:09:31;4.68;;;4.38;;
14592;SDS011;7383;52.354;9.756;2022-10-15T00:11:58;4.75;;;4.35;;
14592;SDS011;7383;52.354;9.756;2022-10-15T00:14:24;4.57;;;4.28;;
14592;SDS011;7383;52.354;9.756;2022-10-15T00:16:51;5.00;;;4.68;;
14592;SDS011;7383;52.354;9.756;2022-10-15T00:19:18;5.40;;;5.00;;
14592;SDS011;7383;52.354;9.756;2022-10-15T00:21:45;5.10;;;4.72;;
14592;SDS011;7383;52.354;9.756;2022-10-15T00:24:12;5.63;;;5.13;;
14592;SDS011;7383;52.354;9.756;2022-10-15T00:26:40;5.70;;;5.30;;
14592;SDS011;7383;52.354;9.756;2022-10-15T00:29:09;5.90;;;5.50;;
14592;SDS011;7383;52.354;9.756;2022-10-15T00:31:39;5.30;;;4.90;;
14592;SDS011;7383;52.354;9.756;2022-10-15T00:34:06;5.50;;;5.00;;
14592;SDS011;7383;52.354;9.756;2022-10-15T00:36:33;5.13;;;4.72;;
14592;SDS011;7383;52.354;9.756;2022-10-15T00:39:02;5.43;;;5.03;;
14592;SDS011;7383;52.354;9.756;2022-10-15T00:41:34;6.15;;;5.65;;
14592;SDS011;7383;52.354;9.756;2022-10-15T00:47:08;5.80;;;5.40;;
14592;SDS011;7383;52.354;9.756;2022-10-15T00:49:40;5.70;;;5.28;;
14592;SDS011;7383;52.354;9.756;2022-10-15T00:52:11;6.00;;;5.53;;
14592;SDS011;7383;52.354;9.756;2022-10-15T00:54:42;6.72;;;6.22;;
14592;SDS011;7383;52.354;9.756;2022-10-15T00:57:13;6.85;;;6.35;;
14592;SDS011;7383;52.354;9.756;2022-10-15T00:59:41;6.15;;;5.75;;
14592;SDS011;7383;52.354;9.756;2022-10-15T01:02:14;6.70;;;6.15;;
14592;SDS011;7383;52.354;9.756;2022-10-15T01:04:41;6.15;;;5.65;;
14592;SDS011;7383;52.354;9.756;2022-10-15T01:07:08;7.25;;;6.65;;
14592;SDS011;7383;52.354;9.756;2022-10-15T01:09:34;7.63;;;7.03;;
14592;SDS011;7383;52.354;9.756;2022-10-15T01:12:01;7.03;;;6.45;;
14592;SDS011;7383;52.354;9.756;2022-10-15T01:14:31;8.02;;;7.32;;
14592;SDS011;7383;52.354;9.756;2022-10-15T01:17:06;7.30;;;6.78;;
14592;SDS011;7383;52.354;9.756;2022-10-15T01:19:54;7.35;;;6.75;;
14592;SDS011;7383;52.354;9.756;2022-10-15T01:22:40;7.68;;;6.97;;
14592;SDS011;7383;52.354;9.756;2022-10-15T01:25:18;8.00;;;7.30;;
14592;SDS011;7383;52.354;9.756;2022-10-15T01:28:00;8.05;;;7.35;;
14592;SDS011;7383;52.354;9.756;2022-10-15T01:30:43;7.47;;;6.78;;
14592;SDS011;7383;52.354;9.756;2022-10-15T01:33:16;7.13;;;6.53;;
14592;SDS011;7383;52.354;9.756;2022-10-15T01:35:58;6.63;;;6.13;;
14592;SDS011;7383;52.354;9.756;2022-10-15T01:38:40;7.43;;;6.72;;
14592;SDS011;7383;52.354;9.756;2022-10-15T01:41:14;6.90;;;6.30;;
14592;SDS011;7383;52.354;9.756;2022-10-15T01:43:49;7.72;;;7.05;;
14592;SDS011;7383;52.354;9.756;2022-10-15T01:46:24;7.40;;;6.82;;
14592;SDS011;7383;52.354;9.756;2022-10-15T01:48:55;7.25;;;6.65;;
14592;SDS011;7383;52.354;9.756;2022-10-15T01:51:24;7.22;;;6.63;;
14592;SDS011;7383;52.354;9.756;2022-10-15T01:53:54;6.75;;;6.25;;
14592;SDS011;7383;52.354;9.756;2022-10-15T01:56:21;6.80;;;6.30;;
14592;SDS011;7383;52.354;9.756;2022-10-15T01:58:49;7.07;;;6.55;;
14592;SDS011;7383;52.354;9.756;2022-10-15T02:01:19;6.70;;;6.20;;
14592;SDS011;7383;52.354;9.756;2022-10-15T02:03:48;7.03;;;6.53;;
14592;SDS011;7383;52.354;9.756;2022-10-15T02:06:18;7.22;;;6.63;;
14592;SDS011;7383;52.354;9.756;2022-10-15T02:08:52;6.35;;;5.85;;
14592;SDS011;7383;52.354;9.756;2022-10-15T02:11:26;6.45;;;5.88;;
14592;SDS011;7383;52.354;9.756;2022-10-15T02:13:57;6.43;;;5.93;;
14592;SDS011;7383;52.354;9.756;2022-10-15T02:16:27;6.90;;;6.30;;
14592;SDS011;7383;52.354;9.756;2022-10-15T02:19:02;7.00;;;6.40;;
14592;SDS011;7383;52.354;9.756;2022-10-15T02:21:34;6.57;;;6.07;;
14592;SDS011;7383;52.354;9.756;2022-10-15T02:24:05;6.43;;;5.93;;
14592;SDS011;7383;52.354;9.756;2022-10-15T02:26:35;7.13;;;6.53;;
14592;SDS011;7383;52.354;9.756;2022-10-15T02:29:05;7.85;;;7.20;;
14592;SDS011;7383;52.354;9.756;2022-10-15T02:31:36;6.57;;;6.07;;
14592;SDS011;7383;52.354;9.756;2022-10-15T02:34:08;6.75;;;6.25;;
14592;SDS011;7383;52.354;9.756;2022-10-15T02:36:38;6.72;;;6.13;;
14592;SDS011;7383;52.354;9.756;2022-10-15T02:39:06;7.00;;;6.45;;
14592;SDS011;7383;52.354;9.756;2022-10-15T02:41:37;6.65;;;6.13;;
14592;SDS011;7383;52.354;9.756;2022-10-15T02:44:04;6.57;;;6.07;;
14592;SDS011;7383;52.354;9.756;2022-10-15T02:46:31;6.78;;;6.22;;
14592;SDS011;7383;52.354;9.756;2022-10-15T02:48:58;6.93;;;6.32;;
14592;SDS011;7383;52.354;9.756;2022-10-15T02:51:26;6.57;;;6.07;;
14592;SDS011;7383;52.354;9.756;2022-10-15T02:53:52;6.72;;;6.13;;
14592;SDS011;7383;52.354;9.756;2022-10-15T02:56:18;7.25;;;6.65;;
14592;SDS011;7383;52.354;9.756;2022-10-15T02:58:45;7.05;;;6.45;;
14592;SDS011;7383;52.354;9.756;2022-10-15T03:01:11;7.35;;;6.78;;
14592;SDS011;7383;52.354;9.756;2022-10-15T03:03:38;6.15;;;5.70;;
14592;SDS011;7383;52.354;9.756;2022-10-15T03:06:04;6.30;;;5.80;;
14592;SDS011;7383;52.354;9.756;2022-10-15T03:08:33;6.70;;;6.10;;
14592;SDS011;7383;52.354;9.756;2022-10-15T03:10:59;7.25;;;6.65;;
14592;SDS011;7383;52.354;9.756;2022-10-15T03:13:26;6.82;;;6.32;;
14592;SDS011;7383;52.354;9.756;2022-10-15T03:15:53;6.82;;;6.32;;
14592;SDS011;7383;52.354;9.756;2022-10-15T03:18:20;6.70;;;6.20;;
14592;SDS011;7383;52.354;9.756;2022-10-15T03:20:51;6.18;;;5.68;;
14592;SDS011;7383;52.354;9.756;2022-10-15T03:23:18;6.47;;;6.00;;
14592;SDS011;7383;52.354;9.756;2022-10-15T03:25:46;6.68;;;6.07;;
14592;SDS011;7383;52.354;9.756;2022-10-15T03:28:13;7.10;;;6.53;;
14592;SDS011;7383;52.354;9.756;2022-10-15T03:30:40;6.88;;;6.32;;
14592;SDS011;7383;52.354;9.756;2022-10-15T03:33:07;7.35;;;6.72;;
14592;SDS011;7383;52.354;9.756;2022-10-15T03:35:34;6.47;;;5.97;;
14592;SDS011;7383;52.354;9.756;2022-10-15T03:38:00;7.15;;;6.55;;
14592;SDS011;7383;52.354;9.756;2022-10-15T03:40:27;7.00;;;6.40;;
14592;SDS011;7383;52.354;9.756;2022-10-15T03:42:55;7.20;;;6.65;;
14592;SDS011;7383;52.354;9.756;2022-10-15T03:45:22;6.88;;;6.38;;
14592;SDS011;7383;52.354;9.756;2022-10-15T03:47:49;6.75;;;6.15;;
14592;SDS011;7383;52.354;9.756;2022-10-15T03:50:16;7.15;;;6.60;;
14592;SDS011;7383;52.354;9.756;2022-10-15T03:52:42;6.93;;;6.43;;
14592;SDS011;7383;52.354;9.756;2022-10-15T03:55:09;6.28;;;5.78;;
14592;SDS011;7383;52.354;9.756;2022-10-15T03:57:36;6.93;;;6.38;;
14592;SDS011;7383;52.354;9.756;2022-10-15T04:00:06;7.10;;;6.50;;
14592;SDS011;7383;52.354;9.756;2022-10-15T04:02:33;7.70;;;7.00;;
14592;SDS011;7383;52.354;9.756;2022-10-15T04:05:00;6.90;;;6.35;;
14592;SDS011;7383;52.354;9.756;2022-10-15T04:07:26;6.90;;;6.40;;
14592;SDS011;7383;52.354;9.756;2022-10-15T04:09:53;6.70;;;6.10;;
14592;SDS011;7383;52.354;9.756;2022-10-15T04:12:19;6.10;;;5.60;;
14592;SDS011;7383;52.354;9.756;2022-10-15T04:14:46;6.60;;;6.10;;
14592;SDS011;7383;52.354;9.756;2022-10-15T04:17:14;6.13;;;5.63;;
14592;SDS011;7383;52.354;9.756;2022-10-15T04:19:40;6.80;;;6.30;;
14592;SDS011;7383;52.354;9.756;2022-10-15T04:22:07;6.63;;;6.13;;
14592;SDS011;7383;52.354;9.756;2022-10-15T04:24:33;6.07;;;5.57;;
14592;SDS011;7383;52.354;9.756;2022-10-15T04:27:00;6.28;;;5.78;;
14592;SDS011;7383;52.354;9.756;2022-10-15T04:29:26;6.43;;;5.88;;
14592;SDS011;7383;52.354;9.756;2022-10-15T04:31:53;6.55;;;6.05;;
14592;SDS011;7383;52.354;9.756;2022-10-15T04:34:21;6.45;;;5.93;;
14592;SDS011;7383;52.354;9.756;2022-10-15T04:36:48;6.38;;;5.88;;
14592;SDS011;7383;52.354;9.756;2022-10-15T04:39:42;6.40;;;5.90;;
14592;SDS011;7383;52.354;9.756;2022-10-15T04:42:08;6.30;;;5.80;;
14592;SDS011;7383;52.354;9.756;2022-10-15T04:44:35;6.50;;;5.95;;
14592;SDS011;7383;52.354;9.756;2022-10-15T04:47:01;5.60;;;5.20;;
14592;SDS011;7383;52.354;9.756;2022-10-15T04:49:29;6.28;;;5.78;;
14592;SDS011;7383;52.354;9.756;2022-10-15T04:51:56;7.38;;;6.78;;
14592;SDS011;7383;52.354;9.756;2022-10-15T04:54:22;6.80;;;6.20;;
14592;SDS011;7383;52.354;9.756;2022-10-15T04:56:49;6.55;;;5.95;;
14592;SDS011;7383;52.354;9.756;2022-10-15T04:59:15;6.68;;;6.13;;
14592;SDS011;7383;52.354;9.756;2022-10-15T05:01:42;6.35;;;5.85;;
14592;SDS011;7383;52.354;9.756;2022-10-15T05:04:09;6.82;;;6.22;;
14592;SDS011;7383;52.354;9.756;2022-10-15T05:06:37;6.13;;;5.35;;
14592;SDS011;7383;52.354;9.756;2022-10-15T05:09:03;6.55;;;6.05;;
14592;SDS011;7383;52.354;9.756;2022-10-15T05:11:30;5.95;;;5.45;;
14592;SDS011;7383;52.354;9.756;2022-10-15T05:14:00;6.75;;;6.25;;
14592;SDS011;7383;52.354;9.756;2022-10-15T05:16:27;6.90;;;6.20;;
14592;SDS011;7383;52.354;9.756;2022-10-15T05:18:55;7.13;;;6.53;;
14592;SDS011;7383;52.354;9.756;2022-10-15T05:21:23;6.72;;;6.13;;
14592;SDS011;7383;52.354;9.756;2022-10-15T05:23:51;6.60;;;6.00;;
14592;SDS011;7383;52.354;9.756;2022-10-15T05:26:19;6.25;;;5.75;;
14592;SDS011;7383;52.354;9.756;2022-10-15T05:28:47;7.10;;;6.50;;
14592;SDS011;7383;52.354;9.756;2022-10-15T05:31:14;7.05;;;6.45;;
14592;SDS011;7383;52.354;9.756;2022-10-15T05:33:42;7.07;;;6.47;;
14592;SDS011;7383;52.354;9.756;2022-10-15T05:36:10;7.82;;;7.15;;
14592;SDS011;7383;52.354;9.756;2022-10-15T05:38:37;7.40;;;6.80;;
14592;SDS011;7383;52.354;9.756;2022-10-15T05:41:05;6.88;;;6.35;;
14592;SDS011;7383;52.354;9.756;2022-10-15T05:43:32;6.97;;;6.38;;
14592;SDS011;7383;52.354;9.756;2022-10-15T05:45:58;8.13;;;7.43;;
14592;SDS011;7383;52.354;9.756;2022-10-15T05:48:25;7.13;;;6.53;;
14592;SDS011;7383;52.354;9.756;2022-10-15T05:50:52;7.47;;;6.78;;
14592;SDS011;7383;52.354;9.756;2022-10-15T05:53:18;7.30;;;6.70;;
14592;SDS011;7383;52.354;9.756;2022-10-15T05:55:45;7.30;;;6.60;;
14592;SDS011;7383;52.354;9.756;2022-10-15T05:58:13;6.85;;;6.25;;
14592;SDS011;7383;52.354;9.756;2022-10-15T06:00:39;6.97;;;6.38;;
14592;SDS011;7383;52.354;9.756;2022-10-15T06:03:08;7.55;;;6.85;;
14592;SDS011;7383;52.354;9.756;2022-10-15T06:05:37;6.85;;;6.25;;
14592;SDS011;7383;52.354;9.756;2022-10-15T06:08:03;6.82;;;6.22;;
14592;SDS011;7383;52.354;9.756;2022-10-15T06:10:33;7.22;;;6.63;;
14592;SDS011;7383;52.354;9.756;2022-10-15T06:13:01;7.18;;;6.57;;
14592;SDS011;7383;52.354;9.756;2022-10-15T06:15:29;7.85;;;7.13;;
14592;SDS011;7383;52.354;9.756;2022-10-15T06:17:56;7.32;;;6.72;;
14592;SDS011;7383;52.354;9.756;2022-10-15T06:20:22;8.02;;;7.32;;
14592;SDS011;7383;52.354;9.756;2022-10-15T06:22:49;7.95;;;7.25;;
14592;SDS011;7383;52.354;9.756;2022-10-15T06:25:15;8.43;;;7.63;;
14592;SDS011;7383;52.354;9.756;2022-10-15T06:27:42;8.07;;;7.38;;
14592;SDS011;7383;52.354;9.756;2022-10-15T06:30:10;7.28;;;6.68;;
14592;SDS011;7383;52.354;9.756;2022-10-15T06:32:40;8.38;;;7.68;;
14592;SDS011;7383;52.354;9.756;2022-10-15T06:35:12;8.52;;;7.80;;
14592;SDS011;7383;52.354;9.756;2022-10-15T06:40:12;8.68;;;7.78;;
14592;SDS011;7383;52.354;9.756;2022-10-15T06:42:39;8.73;;;7.93;;
14592;SDS011;7383;52.354;9.756;2022-10-15T06:45:09;8.85;;;8.05;;
14592;SDS011;7383;52.354;9.756;2022-10-15T06:47:47;8.48;;;7.65;;
14592;SDS011;7383;52.354;9.756;2022-10-15T06:50:17;8.77;;;7.97;;
14592;SDS011;7383;52.354;9.756;2022-10-15T06:52:46;8.85;;;8.05;;
14592;SDS011;7383;52.354;9.756;2022-10-15T06:55:28;11.43;;;10.38;;
14592;SDS011;7383;52.354;9.756;2022-10-15T06:57:57;10.50;;;9.48;;
14592;SDS011;7383;52.354;9.756;2022-10-15T07:00:25;9.48;;;8.48;;
14592;SDS011;7383;52.354;9.756;2022-10-15T07:02:54;9.52;;;8.63;;
14592;SDS011;7383;52.354;9.756;2022-10-15T07:05:21;8.38;;;7.57;;
14592;SDS011;7383;52.354;9.756;2022-10-15T07:07:51;8.93;;;8.13;;
14592;SDS011;7383;52.354;9.756;2022-10-15T07:10:17;9.20;;;7.88;;
14592;SDS011;7383;52.354;9.756;2022-10-15T07:12:44;9.10;;;8.18;;
14592;SDS011;7383;52.354;9.756;2022-10-15T07:15:11;9.25;;;8.35;;
14592;SDS011;7383;52.354;9.756;2022-10-15T07:17:37;9.80;;;8.90;;
14592;SDS011;7383;52.354;9.756;2022-10-15T07:20:06;9.80;;;8.80;;
14592;SDS011;7383;52.354;9.756;2022-10-15T07:22:33;9.35;;;8.45;;
14592;SDS011;7383;52.354;9.756;2022-10-15T07:25:00;14.60;;;13.23;;
14592;SDS011;7383;52.354;9.756;2022-10-15T07:27:30;12.07;;;10.95;;
14592;SDS011;7383;52.354;9.756;2022-10-15T07:29:57;11.00;;;9.90;;
14592;SDS011;7383;52.354;9.756;2022-10-15T07:32:23;11.73;;;10.52;;
14592;SDS011;7383;52.354;9.756;2022-10-15T07:34:52;11.77;;;10.57;;
14592;SDS011;7383;52.354;9.756;2022-10-15T07:37:20;11.52;;;10.40;;
14592;SDS011;7383;52.354;9.756;2022-10-15T07:39:47;11.30;;;10.15;;
14592;SDS011;7383;52.354;9.756;2022-10-15T07:42:18;12.02;;;10.80;;
14592;SDS011;7383;52.354;9.756;2022-10-15T07:44:46;11.88;;;10.68;;
14592;SDS011;7383;52.354;9.756;2022-10-15T07:47:13;11.20;;;10.10;;
14592;SDS011;7383;52.354;9.756;2022-10-15T07:49:39;11.73;;;10.52;;
14592;SDS011;7383;52.354;9.756;2022-10-15T07:52:06;11.70;;;10.50;;
14592;SDS011;7383;52.354;9.756;2022-10-15T07:54:37;13.73;;;12.30;;
14592;SDS011;7383;52.354;9.756;2022-10-15T07:57:04;15.00;;;13.40;;
14592;SDS011;7383;52.354;9.756;2022-10-15T07:59:32;14.77;;;12.88;;
14592;SDS011;7383;52.354;9.756;2022-10-15T08:02:04;16.10;;;13.68;;
14592;SDS011;7383;52.354;9.756;2022-10-15T08:04:35;15.55;;;13.90;;
14592;SDS011;7383;52.354;9.756;2022-10-15T08:07:02;15.63;;;13.63;;
14592;SDS011;7383;52.354;9.756;2022-10-15T08:09:30;15.52;;;13.52;;
14592;SDS011;7383;52.354;9.756;2022-10-15T08:11:58;16.25;;;13.82;;
14592;SDS011;7383;52.354;9.756;2022-10-15T08:14:25;16.83;;;14.30;;
14592;SDS011;7383;52.354;9.756;2022-10-15T08:16:51;17.73;;;15.25;;
14592;SDS011;7383;52.354;9.756;2022-10-15T08:19:18;18.52;;;15.57;;
14592;SDS011;7383;52.354;9.756;2022-10-15T08:21:44;18.02;;;15.70;;
14592;SDS011;7383;52.354;9.756;2022-10-15T08:24:11;16.40;;;14.20;;
14592;SDS011;7383;52.354;9.756;2022-10-15T08:26:38;16.33;;;14.30;;
14592;SDS011;7383;52.354;9.756;2022-10-15T08:29:05;18.50;;;15.18;;
14592;SDS011;7383;52.354;9.756;2022-10-15T08:31:32;18.00;;;15.25;;
14592;SDS011;7383;52.354;9.756;2022-10-15T08:33:59;16.20;;;13.88;;
14592;SDS011;7383;52.354;9.756;2022-10-15T08:36:28;16.45;;;14.05;;
14592;SDS011;7383;52.354;9.756;2022-10-15T08:38:54;16.38;;;13.70;;
14592;SDS011;7383;52.354;9.756;2022-10-15T08:41:23;17.02;;;13.98;;
14592;SDS011;7383;52.354;9.756;2022-10-15T08:43:54;18.52;;;15.70;;
14592;SDS011;7383;52.354;9.756;2022-10-15T08:46:28;16.85;;;14.63;;
14592;SDS011;7383;52.354;9.756;2022-10-15T08:48:59;15.45;;;13.85;;
14592;SDS011;7383;52.354;9.756;2022-10-15T08:51:29;14.90;;;12.77;;
14592;SDS011;7383;52.354;9.756;2022-10-15T08:54:03;14.07;;;12.15;;
14592;SDS011;7383;52.354;9.756;2022-10-15T08:56:32;15.80;;;14.02;;
14592;SDS011;7383;52.354;9.756;2022-10-15T08:59:04;16.27;;;13.93;;
14592;SDS011;7383;52.354;9.756;2022-10-15T09:01:54;15.02;;;13.32;;
14592;SDS011;7383;52.354;9.756;2022-10-15T09:04:25;14.40;;;12.57;;
14592;SDS011;7383;52.354;9.756;2022-10-15T09:07:00;16.98;;;13.20;;
14592;SDS011;7383;52.354;9.756;2022-10-15T09:09:33;13.90;;;12.15;;
14592;SDS011;7383;52.354;9.756;2022-10-15T09:12:12;14.77;;;12.85;;
14592;SDS011;7383;52.354;9.756;2022-10-15T09:14:50;14.43;;;12.55;;
14592;SDS011;7383;52.354;9.756;2022-10-15T09:17:26;13.93;;;12.27;;
14592;SDS011;7383;52.354;9.756;2022-10-15T09:19:57;13.63;;;12.20;;
14592;SDS011;7383;52.354;9.756;2022-10-15T09:22:29;13.35;;;12.00;;
14592;SDS011;7383;52.354;9.756;2022-10-15T09:24:57;15.40;;;13.48;;
14592;SDS011;7383;52.354;9.756;2022-10-15T09:27:26;15.05;;;13.45;;
14592;SDS011;7383;52.354;9.756;2022-10-15T09:29:57;13.70;;;12.20;;
14592;SDS011;7383;52.354;9.756;2022-10-15T09:32:31;12.75;;;11.48;;
14592;SDS011;7383;52.354;9.756;2022-10-15T09:35:10;13.73;;;12.25;;
14592;SDS011;7383;52.354;9.756;2022-10-15T09:37:45;12.02;;;10.93;;
14592;SDS011;7383;52.354;9.756;2022-10-15T09:40:26;11.07;;;10.05;;
14592;SDS011;7383;52.354;9.756;2022-10-15T09:43:02;13.10;;;11.68;;
14592;SDS011;7383;52.354;9.756;2022-10-15T09:45:31;11.88;;;10.68;;
14592;SDS011;7383;52.354;9.756;2022-10-15T09:48:05;12.88;;;11.63;;
14592;SDS011;7383;52.354;9.756;2022-10-15T09:50:41;13.52;;;12.20;;
14592;SDS011;7383;52.354;9.756;2022-10-15T09:53:13;15.40;;;13.90;;
14592;SDS011;7383;52.354;9.756;2022-10-15T09:55:50;13.02;;;11.82;;
14592;SDS011;7383;52.354;9.756;2022-10-15T09:58:26;13.07;;;11.85;;
14592;SDS011;7383;52.354;9.756;2022-10-15T10:00:57;13.40;;;11.85;;
14592;SDS011;7383;52.354;9.756;2022-10-15T10:03:27;13.10;;;11.85;;
14592;SDS011;7383;52.354;9.756;2022-10-15T10:05:59;13.20;;;11.93;;
14592;SDS011;7383;52.354;9.756;2022-10-15T10:08:29;11.60;;;10.60;;
14592;SDS011;7383;52.354;9.756;2022-10-15T10:11:05;10.60;;;9.70;;
14592;SDS011;7383;52.354;9.756;2022-10-15T10:13:42;12.77;;;11.57;;
14592;SDS011;7383;52.354;9.756;2022-10-15T10:16:13;11.07;;;9.98;;
14592;SDS011;7383;52.354;9.756;2022-10-15T10:18:44;10.93;;;9.93;;
14592;SDS011;7383;52.354;9.756;2022-10-15T10:21:32;10.57;;;9.68;;
14592;SDS011;7383;52.354;9.756;2022-10-15T10:24:19;9.68;;;8.82;;
14592;SDS011;7383;52.354;9.756;2022-10-15T10:27:11;8.05;;;7.35;;
14592;SDS011;7383;52.354;9.756;2022-10-15T10:29:47;8.10;;;7.45;;
14592;SDS011;7383;52.354;9.756;2022-10-15T10:32:20;7.40;;;6.80;;
14592;SDS011;7383;52.354;9.756;2022-10-15T10:35:05;5.95;;;5.55;;
14592;SDS011;7383;52.354;9.756;2022-10-15T10:37:53;7.53;;;6.93;;
14592;SDS011;7383;52.354;9.756;2022-10-15T10:40:23;7.15;;;6.55;;
14592;SDS011;7383;52.354;9.756;2022-10-15T10:43:08;7.63;;;7.03;;
14592;SDS011;7383;52.354;9.756;2022-10-15T10:48:43;7.45;;;6.85;;
14592;SDS011;7383;52.354;9.756;2022-10-15T10:51:15;6.70;;;6.20;;
14592;SDS011;7383;52.354;9.756;2022-10-15T10:53:50;6.40;;;5.90;;
14592;SDS011;7383;52.354;9.756;2022-10-15T10:56:20;6.78;;;6.28;;
14592;SDS011;7383;52.354;9.756;2022-10-15T10:58:54;6.80;;;6.20;;
14592;SDS011;7383;52.354;9.756;2022-10-15T11:01:23;7.18;;;6.57;;
14592;SDS011;7383;52.354;9.756;2022-10-15T11:03:54;6.57;;;6.07;;
14592;SDS011;7383;52.354;9.756;2022-10-15T11:06:43;7.00;;;6.50;;
14592;SDS011;7383;52.354;9.756;2022-10-15T11:09:31;7.00;;;6.50;;
14592;SDS011;7383;52.354;9.756;2022-10-15T11:12:23;7.15;;;6.55;;
14592;SDS011;7383;52.354;9.756;2022-10-15T11:15:12;7.30;;;6.65;;
14592;SDS011;7383;52.354;9.756;2022-10-15T11:17:51;7.38;;;6.88;;
14592;SDS011;7383;52.354;9.756;2022-10-15T11:20:31;6.63;;;6.13;;
14592;SDS011;7383;52.354;9.756;2022-10-15T11:23:18;6.28;;;5.85;;
14592;SDS011;7383;52.354;9.756;2022-10-15T11:25:58;6.07;;;5.68;;
14592;SDS011;7383;52.354;9.756;2022-10-15T11:28:40;6.55;;;6.05;;
14592;SDS011;7383;52.354;9.756;2022-10-15T11:31:19;5.85;;;5.25;;
14592;SDS011;7383;52.354;9.756;2022-10-15T11:33:57;6.78;;;6.28;;
14592;SDS011;7383;52.354;9.756;2022-10-15T11:36:50;5.10;;;4.70;;
14592;SDS011;7383;52.354;9.756;2022-10-15T11:39:31;4.25;;;3.95;;
14592;SDS011;7383;52.354;9.756;2022-10-15T11:42:08;4.80;;;4.50;;
14592;SDS011;7383;52.354;9.756;2022-10-15T11:44:52;3.28;;;3.17;;
14592;SDS011;7383;52.354;9.756;2022-10-15T11:47:31;3.72;;;3.53;;
14592;SDS011;7383;52.354;9.756;2022-10-15T11:50:16;3.38;;;3.17;;
14592;SDS011;7383;52.354;9.756;2022-10-15T11:53:00;3.47;;;3.28;;
14592;SDS011;7383;52.354;9.756;2022-10-15T11:55:40;3.50;;;3.30;;
14592;SDS011;7383;52.354;9.756;2022-10-15T11:58:11;3.90;;;3.70;;
14592;SDS011;7383;52.354;9.756;2022-10-15T12:00:48;4.30;;;4.00;;
14592;SDS011;7383;52.354;9.756;2022-10-15T12:03:21;3.85;;;3.65;;
14592;SDS011;7383;52.354;9.756;2022-10-15T12:05:52;3.70;;;3.50;;
14592;SDS011;7383;52.354;9.756;2022-10-15T12:08:29;3.53;;;3.33;;
14592;SDS011;7383;52.354;9.756;2022-10-15T12:11:03;3.78;;;3.58;;
14592;SDS011;7383;52.354;9.756;2022-10-15T12:13:39;3.75;;;3.45;;
14592;SDS011;7383;52.354;9.756;2022-10-15T12:16:15;3.40;;;3.20;;
14592;SDS011;7383;52.354;9.756;2022-10-15T12:18:51;3.13;;;2.92;;
14592;SDS011;7383;52.354;9.756;2022-10-15T12:21:29;2.70;;;2.60;;
14592;SDS011;7383;52.354;9.756;2022-10-15T12:24:04;2.45;;;2.35;;
14592;SDS011;7383;52.354;9.756;2022-10-15T12:26:53;2.60;;;2.50;;
14592;SDS011;7383;52.354;9.756;2022-10-15T12:29:27;2.22;;;2.13;;
14592;SDS011;7383;52.354;9.756;2022-10-15T12:31:56;2.60;;;2.50;;
14592;SDS011;7383;52.354;9.756;2022-10-15T12:34:24;2.33;;;2.22;;
14592;SDS011;7383;52.354;9.756;2022-10-15T12:39:55;2.30;;;2.20;;
14592;SDS011;7383;52.354;9.756;2022-10-15T12:42:39;2.10;;;2.00;;
14592;SDS011;7383;52.354;9.756;2022-10-15T12:47:54;2.20;;;2.10;;
14592;SDS011;7383;52.354;9.756;2022-10-15T12:50:37;2.30;;;2.20;;
14592;SDS011;7383;52.354;9.756;2022-10-15T12:53:04;2.50;;;2.40;;
14592;SDS011;7383;52.354;9.756;2022-10-15T12:56:11;3.10;;;2.90;;
14592;SDS011;7383;52.354;9.756;2022-10-15T13:03:59;2.50;;;2.40;;
14592;SDS011;7383;52.354;9.756;2022-10-15T13:06:29;2.90;;;2.70;;
14592;SDS011;7383;52.354;9.756;2022-10-15T13:12:05;2.65;;;2.55;;
14592;SDS011;7383;52.354;9.756;2022-10-15T13:14:51;2.83;;;2.70;;
14592;SDS011;7383;52.354;9.756;2022-10-15T13:17:50;3.10;;;3.00;;
14592;SDS011;7383;52.354;9.756;2022-10-15T13:20:35;2.45;;;2.35;;
14592;SDS011;7383;52.354;9.756;2022-10-15T13:23:43;2.40;;;2.30;;
14592;SDS011;7383;52.354;9.756;2022-10-15T13:26:25;2.75;;;2.65;;
14592;SDS011;7383;52.354;9.756;2022-10-15T13:29:12;2.55;;;2.45;;
14592;SDS011;7383;52.354;9.756;2022-10-15T13:31:41;2.70;;;2.60;;
14592;SDS011;7383;52.354;9.756;2022-10-15T13:34:18;2.70;;;2.60;;
14592;SDS011;7383;52.354;9.756;2022-10-15T13:36:58;2.40;;;2.30;;
14592;SDS011;7383;52.354;9.756;2022-10-15T13:39:42;2.80;;;2.70;;
14592;SDS011;7383;52.354;9.756;2022-10-15T13:42:13;2.80;;;2.63;;
14592;SDS011;7383;52.354;9.756;2022-10-15T13:44:58;2.70;;;2.50;;
14592;SDS011;7383;52.354;9.756;2022-10-15T13:47:31;2.40;;;2.20;;
14592;SDS011;7383;52.354;9.756;2022-10-15T13:50:18;2.30;;;2.20;;
14592;SDS011;7383;52.354;9.756;2022-10-15T13:52:51;2.10;;;2.00;;
14592;SDS011;7383;52.354;9.756;2022-10-15T13:55:22;2.10;;;2.00;;
14592;SDS011;7383;52.354;9.756;2022-10-15T13:57:54;2.17;;;2.00;;
14592;SDS011;7383;52.354;9.756;2022-10-15T14:00:32;2.15;;;2.05;;
14592;SDS011;7383;52.354;9.756;2022-10-15T14:03:15;1.90;;;1.80;;
14592;SDS011;7383;52.354;9.756;2022-10-15T14:05:55;3.40;;;1.83;;
14592;SDS011;7383;52.354;9.756;2022-10-15T14:08:38;2.00;;;1.90;;
14592;SDS011;7383;52.354;9.756;2022-10-15T15:03:45;0.90;;;0.90;;
14592;SDS011;7383;52.354;9.756;2022-10-15T15:13:23;0.98;;;0.77;;
14592;SDS011;7383;52.354;9.756;2022-10-15T15:17:28;0.50;;;0.50;;
14592;SDS011;7383;52.354;9.756;2022-10-15T15:19:28;0.60;;;0.60;;
14592;SDS011;7383;52.354;9.756;2022-10-15T15:22:31;0.55;;;0.50;;
14592;SDS011;7383;52.354;9.756;2022-10-15T15:28:59;0.50;;;0.50;;
14592;SDS011;7383;52.354;9.756;2022-10-15T15:38:32;0.50;;;0.50;;
14592;SDS011;7383;52.354;9.756;2022-10-15T15:41:38;0.50;;;0.50;;
14592;SDS011;7383;52.354;9.756;2022-10-15T15:44:14;0.60;;;0.60;;
14592;SDS011;7383;52.354;9.756;2022-10-15T15:48:36;0.52;;;0.52;;
14592;SDS011;7383;52.354;9.756;2022-10-15T15:50:25;0.50;;;0.50;;
14592;SDS011;7383;52.354;9.756;2022-10-15T15:53:14;0.60;;;0.60;;
14592;SDS011;7383;52.354;9.756;2022-10-15T15:56:20;0.50;;;0.50;;
14592;SDS011;7383;52.354;9.756;2022-10-15T15:58:49;0.60;;;0.60;;
14592;SDS011;7383;52.354;9.756;2022-10-15T16:01:17;0.52;;;0.52;;
14592;SDS011;7383;52.354;9.756;2022-10-15T16:03:51;0.70;;;0.43;;
14592;SDS011;7383;52.354;9.756;2022-10-15T16:06:36;0.55;;;0.55;;
14592;SDS011;7383;52.354;9.756;2022-10-15T16:09:16;0.75;;;0.75;;
14592;SDS011;7383;52.354;9.756;2022-10-15T16:11:46;0.70;;;0.70;;
14592;SDS011;7383;52.354;9.756;2022-10-15T16:14:40;0.60;;;0.60;;
14592;SDS011;7383;52.354;9.756;2022-10-15T16:17:09;0.40;;;0.40;;
14592;SDS011;7383;52.354;9.756;2022-10-15T16:19:36;0.73;;;0.63;;
14592;SDS011;7383;52.354;9.756;2022-10-15T16:22:03;0.43;;;0.43;;
14592;SDS011;7383;52.354;9.756;2022-10-15T16:24:49;0.73;;;0.52;;
14592;SDS011;7383;52.354;9.756;2022-10-15T16:27:16;0.73;;;0.52;;
14592;SDS011;7383;52.354;9.756;2022-10-15T17:18:16;0.50;;;0.50;;
14592;SDS011;7383;52.354;9.756;2022-10-15T17:23:22;0.80;;;0.80;;
14592;SDS011;7383;52.354;9.756;2022-10-15T17:28:41;0.80;;;0.80;;
14592;SDS011;7383;52.354;9.756;2022-10-15T17:31:49;0.70;;;0.70;;
14592;SDS011;7383;52.354;9.756;2022-10-15T17:46:00;0.93;;;0.93;;
14592;SDS011;7383;52.354;9.756;2022-10-15T17:48:36;1.30;;;0.60;;
14592;SDS011;7383;52.354;9.756;2022-10-15T17:51:30;0.60;;;0.60;;
14592;SDS011;7383;52.354;9.756;2022-10-15T17:54:41;0.60;;;0.60;;
14592;SDS011;7383;52.354;9.756;2022-10-15T18:00:06;0.50;;;0.50;;
14592;SDS011;7383;52.354;9.756;2022-10-15T18:02:35;0.50;;;0.50;;
14592;SDS011;7383;52.354;9.756;2022-10-15T18:05:05;0.50;;;0.50;;
14592;SDS011;7383;52.354;9.756;2022-10-15T18:07:50;0.85;;;0.60;;
14592;SDS011;7383;52.354;9.756;2022-10-15T18:10:34;0.40;;;0.40;;
14592;SDS011;7383;52.354;9.756;2022-10-15T18:16:55;0.55;;;0.55;;